Observations for Trim Market St
| Time | AQI | Temp °C | Hum % | Pres Pa | CO μg/m³ | H₂S μg/m³ | NO μg/m³ | NO₂ μg/m³ | O₃ μg/m³ | SO₂ μg/m³ | PM1 μg/m³ | PM2.5 μg/m³ | PM10 μg/m³ |
|---|---|---|---|---|---|---|---|---|---|---|---|---|---|
| Saturday 22 August 2026 | |||||||||||||
| 20:43 | 2 | 19 | 51 | 59,940 | 0.19 | 0 | 1.49 | 38.9 | 47.53 | 0 | 1.43 | 3.42 | 5.31 |
| 20:42 | 2 | 19 | 51 | 60,337 | 0.2 | 0 | 1.4 | 31.87 | 53.57 | 0 | 2.85 | 5.48 | 6.79 |
| 20:41 | 2 | 19 | 51 | 60,702 | 0.22 | 0 | 1.39 | 32.63 | 52.57 | 0 | 3.56 | 6.51 | 9.01 |
| 20:40 | 2 | 19 | 51 | 61,048 | 0.28 | 0 | 1.4 | 43.3 | 42.53 | 0 | 0.71 | 4.98 | 6.05 |
| 20:39 | 2 | 19.1 | 51 | 61,392 | 0.29 | 0 | 1.36 | 31.81 | 53.24 | 0 | 2.14 | 4.99 | 6.79 |
| 20:38 | 2 | 19.1 | 51 | 61,557 | 0.29 | 0 | 1.35 | 33.38 | 50.46 | 0 | 2.14 | 6.53 | 8.27 |
| 20:37 | 2 | 19.1 | 51 | 61,668 | 0.17 | 0 | 1.43 | 21.48 | 56.67 | 0 | 1.43 | 5.5 | 7.53 |
| 20:35 | 2 | 19.2 | 50 | 61,729 | 0.21 | 0 | 1.5 | 51.52 | 29.82 | 0 | 1.43 | 4.49 | 8.27 |
| 20:30 | 2 | 19.3 | 50 | 62,387 | 0.2 | 0 | 1.79 | 39.63 | 41.14 | 0 | 2.85 | 5.02 | 8.27 |
| 20:29 | 2 | 19.3 | 50 | 62,417 | 0.1 | 0 | 2.52 | 33.33 | 51.51 | 0 | 2.14 | 5.03 | 6.78 |
| 20:26 | 2 | 19.4 | 50 | 62,654 | 0.67 | 6.54 | 10.49 | 77.62 | 9.45 | 0 | 2.85 | 6.07 | 8.27 |
| 20:20 | 2 | 19.6 | 49 | 63,169 | 0.1 | 0 | 1.48 | 31.15 | 56.24 | 0 | 2.14 | 6.09 | 8.28 |
| 20:19 | 2 | 19.6 | 49 | 63,223 | 0.15 | 0 | 1.52 | 35.99 | 50.19 | 0 | 2.85 | 5.58 | 6.78 |
| 20:18 | 2 | 19.6 | 49 | 63,266 | 0.2 | 0 | 1.57 | 42.74 | 44.15 | 0 | 2.14 | 5.59 | 8.28 |
| 20:16 | 2 | 19.6 | 49 | 63,380 | 0.13 | 0 | 1.43 | 53.46 | 32.02 | 0 | 1.43 | 5.6 | 8.28 |
| 20:15 | 2 | 19.7 | 49 | 63,470 | 0.17 | 0 | 1.39 | 43.5 | 43.64 | 0 | 3.56 | 6.63 | 8.28 |
| 20:14 | 2 | 19.7 | 49 | 63,545 | 0.1 | 0 | 1.45 | 47.48 | 36.78 | 0 | 2.14 | 5.09 | 6.02 |
| 20:13 | 2 | 19.7 | 49 | 63,641 | 0.11 | 0 | 1.64 | 45.11 | 48.85 | 0 | 1.43 | 6.13 | 7.53 |
| 20:11 | 2 | 19.7 | 48 | 63,880 | 0.07 | 0 | 1.63 | 59.81 | 27.94 | 0 | 1.43 | 5.63 | 6.77 |
| 20:10 | 2 | 19.8 | 48 | 63,985 | 0.08 | 0 | 1.6 | 56.98 | 31.27 | 0 | 2.85 | 5.63 | 6.77 |